NKS9501 KSJT-KGYR
Flight info
| Callsign | NKS9501 |
|---|---|
| Flight time | N/A |
| Altitude | 38000 |
| Route | EWM SSO SUNSS8 |
| Aircraft | A321/M-SDE3FGHIRWY/LB1 |
Departure
| Time | 2026-05-06 22:00 |
|---|---|
| Airport | San Angelo Regional Mathis Field (KSJT) |
Arrival
| Time | N/A |
|---|---|
| Airport | Phoenix Goodyear Airport (KGYR) |
| Time | Latitude | Longitude | Altitude | Speed | Heading |
|---|---|---|---|---|---|
| 2026-05-06 21:27 | 31.35699 | -100.50221 | 1919 ft | 0 kts | 312° |
| 2026-05-06 21:52 | 31.35687 | -100.50204 | 1919 ft | 4 kts | 311° |
| 2026-05-06 21:53 | 31.35668 | -100.50182 | 1919 ft | 4 kts | 320° |
| 2026-05-06 21:53 | 31.35648 | -100.50161 | 1919 ft | 4 kts | 309° |
| 2026-05-06 21:53 | 31.35638 | -100.50140 | 1919 ft | 1 kts | 277° |
| 2026-05-06 21:53 | 31.35637 | -100.50135 | 1919 ft | 0 kts | 277° |
| 2026-05-06 21:57 | 31.35635 | -100.50144 | 1919 ft | 1 kts | 239° |
| 2026-05-06 21:57 | 31.35625 | -100.50141 | 1919 ft | 3 kts | 165° |
| 2026-05-06 21:57 | 31.35581 | -100.50129 | 1919 ft | 9 kts | 170° |
| 2026-05-06 21:58 | 31.35503 | -100.50131 | 1919 ft | 13 kts | 186° |
| 2026-05-06 21:58 | 31.35401 | -100.50144 | 1919 ft | 17 kts | 186° |
| 2026-05-06 21:58 | 31.35269 | -100.50164 | 1919 ft | 21 kts | 188° |
| 2026-05-06 21:58 | 31.35117 | -100.50188 | 1919 ft | 24 kts | 187° |
| 2026-05-06 21:59 | 31.34945 | -100.50214 | 1919 ft | 26 kts | 187° |
| 2026-05-06 21:59 | 31.34773 | -100.50237 | 1919 ft | 21 kts | 186° |
| 2026-05-06 21:59 | 31.34707 | -100.50202 | 1922 ft | 11 kts | 103° |
| 2026-05-06 21:59 | 31.34701 | -100.50098 | 1918 ft | 14 kts | 82° |
| 2026-05-06 22:00 | 31.34751 | -100.50071 | 1917 ft | 8 kts | 1° |
| 2026-05-06 22:00 | 31.34950 | -100.50041 | 1917 ft | 70 kts | 7° |
| 2026-05-06 22:00 | 31.35730 | -100.49921 | 1927 ft | 151 kts | 8° |
| 2026-05-06 22:00 | 31.36829 | -100.49740 | 2558 ft | 164 kts | 9° |
| 2026-05-06 22:01 | 31.37972 | -100.49597 | 3400 ft | 167 kts | 7° |
| 2026-05-06 22:01 | 31.39210 | -100.49473 | 3822 ft | 190 kts | 6° |
| 2026-05-06 22:01 | 31.40594 | -100.49625 | 4134 ft | 215 kts | 340° |
| 2026-05-06 22:01 | 31.41826 | -100.50747 | 4414 ft | 247 kts | 306° |
| 2026-05-06 22:02 | 31.42489 | -100.52689 | 5068 ft | 267 kts | 280° |
| 2026-05-06 22:02 | 31.42744 | -100.54870 | 6072 ft | 273 kts | 278° |
| 2026-05-06 22:02 | 31.42993 | -100.57087 | 7146 ft | 276 kts | 278° |
| 2026-05-06 22:02 | 31.43242 | -100.59322 | 8230 ft | 277 kts | 277° |
| 2026-05-06 22:03 | 31.43497 | -100.61568 | 9243 ft | 279 kts | 278° |
| 2026-05-06 22:03 | 31.43759 | -100.63834 | 10191 ft | 284 kts | 277° |
| 2026-05-06 22:03 | 31.44032 | -100.66225 | 10611 ft | 307 kts | 276° |
| 2026-05-06 22:03 | 31.44320 | -100.68772 | 11175 ft | 321 kts | 275° |
| 2026-05-06 22:04 | 31.44615 | -100.71384 | 12058 ft | 325 kts | 275° |
| 2026-05-06 22:04 | 31.44913 | -100.74015 | 12994 ft | 327 kts | 274° |
| 2026-05-06 22:04 | 31.45212 | -100.76656 | 13958 ft | 328 kts | 274° |
| 2026-05-06 22:04 | 31.45514 | -100.79303 | 14921 ft | 328 kts | 274° |
| 2026-05-06 22:05 | 31.45815 | -100.81959 | 15852 ft | 330 kts | 273° |
| 2026-05-06 22:05 | 31.46115 | -100.84630 | 16743 ft | 332 kts | 272° |
| 2026-05-06 22:05 | 31.46413 | -100.87316 | 17625 ft | 334 kts | 272° |
| 2026-05-06 22:05 | 31.46710 | -100.90015 | 18497 ft | 335 kts | 272° |
| 2026-05-06 22:06 | 31.47012 | -100.92730 | 19310 ft | 337 kts | 272° |
| 2026-05-06 22:06 | 31.47318 | -100.95460 | 20095 ft | 339 kts | 272° |
| 2026-05-06 22:06 | 31.47625 | -100.98212 | 20831 ft | 342 kts | 271° |
| 2026-05-06 22:06 | 31.47934 | -101.00992 | 21549 ft | 346 kts | 272° |
| 2026-05-06 22:07 | 31.48245 | -101.03795 | 22257 ft | 349 kts | 271° |
| 2026-05-06 22:07 | 31.48558 | -101.06626 | 22929 ft | 352 kts | 271° |
| 2026-05-06 22:07 | 31.48873 | -101.09483 | 23574 ft | 355 kts | 271° |
| 2026-05-06 22:07 | 31.49188 | -101.12357 | 24195 ft | 357 kts | 271° |
| 2026-05-06 22:08 | 31.49504 | -101.15257 | 24796 ft | 360 kts | 271° |
| 2026-05-06 22:08 | 31.49822 | -101.18175 | 25388 ft | 362 kts | 271° |
| 2026-05-06 22:08 | 31.50145 | -101.21117 | 25960 ft | 365 kts | 271° |
| 2026-05-06 22:08 | 31.50470 | -101.24070 | 26545 ft | 367 kts | 271° |
| 2026-05-06 22:09 | 31.50796 | -101.27043 | 27082 ft | 369 kts | 270° |
| 2026-05-06 22:09 | 31.51121 | -101.30028 | 27617 ft | 371 kts | 270° |
| 2026-05-06 22:09 | 31.51449 | -101.33032 | 28155 ft | 373 kts | 270° |
| 2026-05-06 22:09 | 31.51775 | -101.36054 | 28681 ft | 374 kts | 270° |
| 2026-05-06 22:10 | 31.52101 | -101.39085 | 29180 ft | 376 kts | 270° |
| 2026-05-06 22:10 | 31.52431 | -101.42134 | 29647 ft | 378 kts | 270° |
| 2026-05-06 22:10 | 31.52761 | -101.45197 | 30131 ft | 380 kts | 270° |
| 2026-05-06 22:10 | 31.53092 | -101.48279 | 30610 ft | 382 kts | 269° |
| 2026-05-06 22:11 | 31.53420 | -101.51374 | 31109 ft | 383 kts | 269° |
| 2026-05-06 22:11 | 31.53746 | -101.54462 | 31718 ft | 381 kts | 269° |
| 2026-05-06 22:11 | 31.54073 | -101.57531 | 32356 ft | 378 kts | 269° |
| 2026-05-06 22:11 | 31.54397 | -101.60575 | 32977 ft | 375 kts | 269° |
| 2026-05-06 22:12 | 31.54720 | -101.63601 | 33570 ft | 373 kts | 269° |
| 2026-05-06 22:12 | 31.55036 | -101.66565 | 34137 ft | 371 kts | 268° |
| 2026-05-06 22:12 | 31.55356 | -101.69594 | 34731 ft | 368 kts | 268° |
| 2026-05-06 22:12 | 31.55666 | -101.72522 | 35297 ft | 365 kts | 268° |
| 2026-05-06 22:13 | 31.55977 | -101.75466 | 35863 ft | 362 kts | 268° |
| 2026-05-06 22:13 | 31.56287 | -101.78427 | 36418 ft | 360 kts | 268° |
| 2026-05-06 22:13 | 31.56587 | -101.81286 | 36934 ft | 357 kts | 268° |
| 2026-05-06 22:13 | 31.56893 | -101.84198 | 37483 ft | 353 kts | 268° |
| 2026-05-06 22:14 | 31.57186 | -101.87006 | 37892 ft | 351 kts | 268° |
| 2026-05-06 22:14 | 31.57478 | -101.89821 | 37991 ft | 345 kts | 268° |
| 2026-05-06 22:14 | 31.58046 | -101.95287 | 38007 ft | 333 kts | 268° |
| 2026-05-06 22:15 | 31.58594 | -102.00663 | 37999 ft | 331 kts | 268° |
| 2026-05-06 22:15 | 31.59140 | -102.06027 | 37998 ft | 331 kts | 268° |
| 2026-05-06 22:16 | 31.59686 | -102.11397 | 37999 ft | 331 kts | 268° |
| 2026-05-06 22:16 | 31.60230 | -102.16763 | 38001 ft | 332 kts | 268° |
| 2026-05-06 22:17 | 31.60774 | -102.22143 | 38007 ft | 332 kts | 268° |
| 2026-05-06 22:17 | 31.61320 | -102.27528 | 38011 ft | 333 kts | 268° |
| 2026-05-06 22:18 | 31.61857 | -102.32889 | 38013 ft | 333 kts | 268° |
| 2026-05-06 22:18 | 31.62397 | -102.38290 | 38015 ft | 334 kts | 268° |
| 2026-05-06 22:19 | 31.62936 | -102.43694 | 38017 ft | 333 kts | 268° |
| 2026-05-06 22:19 | 31.63473 | -102.49097 | 38016 ft | 334 kts | 268° |
| 2026-05-06 22:20 | 31.64008 | -102.54503 | 38013 ft | 333 kts | 268° |
| 2026-05-06 22:20 | 31.64539 | -102.59900 | 38010 ft | 333 kts | 268° |
| 2026-05-06 22:21 | 31.65064 | -102.65297 | 38007 ft | 333 kts | 268° |
| 2026-05-06 22:21 | 31.65590 | -102.70693 | 38001 ft | 333 kts | 268° |
| 2026-05-06 22:22 | 31.66117 | -102.76088 | 37995 ft | 332 kts | 268° |
| 2026-05-06 22:22 | 31.66633 | -102.81482 | 37991 ft | 333 kts | 268° |
| 2026-05-06 22:23 | 31.67155 | -102.86883 | 37985 ft | 333 kts | 267° |
| 2026-05-06 22:23 | 31.67672 | -102.92291 | 37983 ft | 334 kts | 267° |
| 2026-05-06 22:24 | 31.68167 | -102.97499 | 37981 ft | 334 kts | 267° |
| 2026-05-06 22:24 | 31.68679 | -103.02925 | 37980 ft | 334 kts | 267° |
| 2026-05-06 22:25 | 31.69192 | -103.08352 | 37983 ft | 335 kts | 267° |
| 2026-05-06 22:25 | 31.69699 | -103.13743 | 37984 ft | 334 kts | 267° |
| 2026-05-06 22:26 | 31.70204 | -103.19164 | 37983 ft | 334 kts | 267° |
| 2026-05-06 22:26 | 31.70713 | -103.24581 | 37984 ft | 334 kts | 267° |
| 2026-05-06 22:27 | 31.71218 | -103.29990 | 37985 ft | 333 kts | 267° |
| 2026-05-06 22:27 | 31.71711 | -103.35384 | 37982 ft | 332 kts | 266° |
| 2026-05-06 22:28 | 31.72204 | -103.40771 | 37963 ft | 332 kts | 266° |
| 2026-05-06 22:28 | 31.72697 | -103.46156 | 37976 ft | 331 kts | 266° |
| 2026-05-06 22:29 | 31.73183 | -103.51534 | 37961 ft | 331 kts | 266° |
| 2026-05-06 22:29 | 31.73671 | -103.56912 | 37979 ft | 331 kts | 266° |
| 2026-05-06 22:30 | 31.74157 | -103.62288 | 37981 ft | 331 kts | 266° |
| 2026-05-06 22:30 | 31.74642 | -103.67671 | 37981 ft | 331 kts | 266° |
| 2026-05-06 22:31 | 31.75128 | -103.73048 | 37982 ft | 331 kts | 266° |
| 2026-05-06 22:31 | 31.75601 | -103.78377 | 37983 ft | 330 kts | 266° |
| 2026-05-06 22:32 | 31.76073 | -103.83742 | 37983 ft | 330 kts | 266° |
| 2026-05-06 22:32 | 31.76540 | -103.89101 | 37983 ft | 330 kts | 266° |
| 2026-05-06 22:33 | 31.77006 | -103.94462 | 37985 ft | 330 kts | 266° |
| 2026-05-06 22:33 | 31.77471 | -103.99820 | 37989 ft | 329 kts | 266° |
| 2026-05-06 22:34 | 31.77936 | -104.05173 | 37991 ft | 329 kts | 266° |
| 2026-05-06 22:34 | 31.78399 | -104.10525 | 37988 ft | 329 kts | 266° |
| 2026-05-06 22:35 | 31.78863 | -104.15874 | 37985 ft | 329 kts | 266° |
| 2026-05-06 22:35 | 31.79315 | -104.21218 | 37981 ft | 329 kts | 266° |
| 2026-05-06 22:36 | 31.79691 | -104.25665 | 37980 ft | 329 kts | 266° |
| 2026-05-06 22:36 | 31.80149 | -104.31007 | 37979 ft | 329 kts | 266° |
| 2026-05-06 22:37 | 31.80603 | -104.36352 | 37978 ft | 328 kts | 266° |
| 2026-05-06 22:37 | 31.81051 | -104.41701 | 37978 ft | 329 kts | 266° |
| 2026-05-06 22:38 | 31.81496 | -104.47056 | 37979 ft | 329 kts | 266° |
| 2026-05-06 22:38 | 31.81942 | -104.52417 | 37984 ft | 330 kts | 266° |
| 2026-05-06 22:39 | 31.82392 | -104.57882 | 37917 ft | 346 kts | 266° |
| 2026-05-06 22:39 | 31.82671 | -104.60721 | 38132 ft | 351 kts | 268° |
| 2026-05-06 22:39 | 31.82992 | -104.63324 | 38484 ft | 352 kts | 269° |
| 2026-05-06 22:40 | 31.83399 | -104.66167 | 38930 ft | 350 kts | 270° |
| 2026-05-06 22:40 | 31.83684 | -104.68114 | 39258 ft | 348 kts | 269° |
| 2026-05-06 22:40 | 31.83989 | -104.70248 | 39645 ft | 344 kts | 269° |
| 2026-05-06 22:40 | 31.84366 | -104.72984 | 39948 ft | 346 kts | 270° |
| 2026-05-06 22:41 | 31.85266 | -104.78652 | 40130 ft | 359 kts | 272° |
| 2026-05-06 22:41 | 31.85823 | -104.81528 | 40303 ft | 362 kts | 273° |
| 2026-05-06 22:41 | 31.86418 | -104.84402 | 40538 ft | 364 kts | 273° |
| 2026-05-06 22:42 | 31.86980 | -104.87308 | 40830 ft | 363 kts | 272° |
| 2026-05-06 22:42 | 31.87506 | -104.90206 | 41170 ft | 361 kts | 272° |
| 2026-05-06 22:42 | 31.87931 | -104.92604 | 41491 ft | 358 kts | 272° |
| 2026-05-06 22:42 | 31.88430 | -104.95473 | 41927 ft | 354 kts | 272° |
| 2026-05-06 22:43 | 31.88916 | -104.98284 | 42348 ft | 349 kts | 272° |
| 2026-05-06 22:43 | 31.89400 | -105.01062 | 42768 ft | 344 kts | 272° |
| 2026-05-06 22:43 | 31.89881 | -105.03796 | 43170 ft | 338 kts | 272° |
| 2026-05-06 22:43 | 31.90361 | -105.06472 | 43558 ft | 332 kts | 272° |
| 2026-05-06 22:44 | 31.90843 | -105.09204 | 42157 ft | 364 kts | 272° |
| 2026-05-06 22:44 | 31.91340 | -105.12371 | 39937 ft | 421 kts | 272° |
| 2026-05-06 22:44 | 31.91858 | -105.15940 | 37736 ft | 458 kts | 271° |
| 2026-05-06 22:44 | 31.92374 | -105.19696 | 35176 ft | 470 kts | 271° |
| 2026-05-06 22:45 | 31.92819 | -105.23071 | 33264 ft | 479 kts | 271° |
| 2026-05-06 22:45 | 31.93140 | -105.25556 | 32484 ft | 470 kts | 270° |
| 2026-05-06 22:45 | 31.93593 | -105.28843 | 31912 ft | 426 kts | 271° |
| 2026-05-06 22:45 | 31.94137 | -105.32247 | 31542 ft | 406 kts | 272° |
| 2026-05-06 22:46 | 31.94700 | -105.35410 | 30669 ft | 400 kts | 273° |
| 2026-05-06 22:46 | 31.95389 | -105.38617 | 29809 ft | 398 kts | 276° |
| 2026-05-06 22:46 | 31.96127 | -105.41593 | 27675 ft | 411 kts | 277° |
| 2026-05-06 22:46 | 31.96967 | -105.44867 | 24201 ft | 415 kts | 279° |
| 2026-05-06 22:47 | 31.97699 | -105.47748 | 25653 ft | 342 kts | 278° |
| 2026-05-06 22:47 | 31.98312 | -105.50336 | 25783 ft | 315 kts | 277° |
| 2026-05-06 22:47 | 31.98917 | -105.52697 | 25782 ft | 285 kts | 276° |
| 2026-05-06 22:47 | 31.99568 | -105.54851 | 25831 ft | 270 kts | 279° |
| 2026-05-06 22:48 | 32.00231 | -105.56875 | 25992 ft | 267 kts | 279° |
| 2026-05-06 22:48 | 32.00890 | -105.58984 | 26359 ft | 281 kts | 278° |
| 2026-05-06 22:48 | 32.01531 | -105.61204 | 26799 ft | 291 kts | 277° |
| 2026-05-06 22:48 | 32.02146 | -105.63507 | 27354 ft | 297 kts | 276° |
| 2026-05-06 22:49 | 32.02727 | -105.65835 | 28195 ft | 294 kts | 275° |